Time;durP1;ratioP1;P1;durP2;ratioP2;P2;SDS_P1;SDS_P2;PMS_P1;PMS_P2;Temp;Humidity;BMP_temperature;BMP_pressure;BME280_temperature;BME280_humidity;BME280_pressure;Samples;Min_cycle;Max_cycle;Signal;HPM_P1;HPM_P2
2020/12/24 00:00:29;;;;;;;3.30;1.65;;;;;;;12.73;42.25;102260.91;5074887;28;20029;-72
2020/12/24 00:02:54;;;;;;;5.35;2.38;;;;;;;13.24;41.45;102267.78;5074812;28;20444;-74
2020/12/24 00:05:20;;;;;;;5.20;2.40;;;;;;;13.36;41.04;102276.38;5074614;28;20020;-74
2020/12/24 00:07:45;;;;;;;4.40;2.22;;;;;;;13.51;40.80;102280.84;5074557;28;20024;-77
2020/12/24 00:10:11;;;;;;;9.63;2.40;;;;;;;13.21;41.41;102282.88;5074468;28;20383;-74
2020/12/24 00:12:37;;;;;;;4.82;2.20;;;;;;;13.08;42.02;102289.06;5074678;28;20092;-73
2020/12/24 00:15:05;;;;;;;4.65;1.80;;;;;;;13.02;41.92;102282.00;5074271;28;20017;-73
2020/12/24 00:17:30;;;;;;;4.53;1.65;;;;;;;12.86;42.37;102291.50;5074562;28;20028;-74
2020/12/24 00:19:56;;;;;;;5.43;1.98;;;;;;;13.15;41.96;102292.28;5074268;28;20024;-74
2020/12/24 00:22:21;;;;;;;4.20;1.92;;;;;;;12.96;42.49;102307.84;5074519;28;20471;-74
2020/12/24 00:24:47;;;;;;;4.28;1.98;;;;;;;12.75;43.17;102308.06;5074298;28;20108;-74
2020/12/24 00:27:13;;;;;;;5.13;2.45;;;;;;;13.15;42.08;102319.72;5074404;28;20024;-74
2020/12/24 00:29:39;;;;;;;6.20;2.20;;;;;;;13.28;41.97;102305.31;5074206;28;20119;-74
2020/12/24 00:32:05;;;;;;;7.00;3.00;;;;;;;13.43;41.80;102309.78;5074316;28;20020;-74
2020/12/24 00:34:31;;;;;;;5.45;2.10;;;;;;;13.38;41.88;102317.28;5073947;28;20478;-74
2020/12/24 00:36:56;;;;;;;5.80;2.30;;;;;;;13.36;42.06;102320.31;5074028;28;20478;-74
2020/12/24 00:39:22;;;;;;;6.95;2.85;;;;;;;13.30;42.42;102327.81;5074169;28;20017;-74
2020/12/24 00:41:48;;;;;;;5.07;2.55;;;;;;;13.48;42.02;102328.97;5074089;28;20021;-74
2020/12/24 00:44:13;;;;;;;6.28;2.60;;;;;;;13.37;42.33;102316.44;5073873;28;20072;-74
2020/12/24 00:46:39;;;;;;;6.20;2.80;;;;;;;13.27;42.79;102324.81;5073939;28;20074;-74
2020/12/24 00:49:04;;;;;;;7.00;2.53;;;;;;;13.52;42.05;102335.47;5073816;28;20024;-74
2020/12/24 00:51:30;;;;;;;6.97;2.55;;;;;;;13.38;42.58;102342.00;5073913;28;20060;-75
2020/12/24 00:53:56;;;;;;;5.67;2.33;;;;;;;13.52;42.26;102342.91;5073624;28;20049;-74
2020/12/24 00:56:21;;;;;;;5.60;2.20;;;;;;;13.47;42.35;102357.53;5055839;28;20036;-77
2020/12/24 00:58:47;;;;;;;6.85;2.60;;;;;;;13.45;42.33;102359.75;5073576;28;20031;-73
2020/12/24 01:01:12;;;;;;;7.72;2.60;;;;;;;13.48;42.29;102363.84;5073473;28;20029;-74
2020/12/24 01:03:38;;;;;;;8.20;2.03;;;;;;;13.44;42.50;102360.03;5073704;28;20020;-75
2020/12/24 01:06:04;;;;;;;5.30;2.53;;;;;;;13.45;42.50;102365.25;5073517;28;20029;-74
2020/12/24 01:08:29;;;;;;;8.90;2.20;;;;;;;13.32;42.68;102369.50;5073410;28;20036;-74
2020/12/24 01:10:55;;;;;;;7.25;2.47;;;;;;;13.55;42.20;102365.13;5073508;28;20467;-74
2020/12/24 01:13:20;;;;;;;6.38;2.08;;;;;;;13.54;42.17;102371.72;5073330;28;20031;-74
2020/12/24 01:15:46;;;;;;;9.23;2.70;;;;;;;13.47;42.42;102375.94;5073410;28;20174;-75
2020/12/24 01:18:12;;;;;;;6.28;2.10;;;;;;;13.50;42.39;102372.59;5073215;28;20023;-74
2020/12/24 01:20:37;;;;;;;6.38;1.83;;;;;;;13.35;42.77;102376.34;5072946;28;20028;-74
2020/12/24 01:23:05;;;;;;;5.03;2.13;;;;;;;13.48;42.53;102378.38;5073165;28;20025;-73
2020/12/24 01:25:31;;;;;;;6.23;2.27;;;;;;;13.35;42.69;102381.00;5072757;28;20107;-74
2020/12/24 01:27:57;;;;;;;4.35;1.75;;;;;;;13.26;43.06;102384.41;5073038;28;20031;-75
2020/12/24 01:30:22;;;;;;;7.07;1.67;;;;;;;13.25;43.14;102380.03;5073092;28;20100;-74
2020/12/24 01:32:48;;;;;;;5.20;1.88;;;;;;;13.41;42.57;102388.91;5073133;28;20413;-74
2020/12/24 01:35:13;;;;;;;11.10;2.00;;;;;;;13.45;42.51;102392.72;5072839;28;20035;-76
2020/12/24 01:37:39;;;;;;;5.60;1.85;;;;;;;13.43;42.51;102394.91;5073062;28;20016;-73
2020/12/24 01:40:05;;;;;;;4.80;1.55;;;;;;;13.42;42.47;102397.97;5073163;28;20116;-74
2020/12/24 01:42:31;;;;;;;7.38;1.92;;;;;;;13.51;42.25;102405.25;5072802;28;20467;-74
2020/12/24 01:44:57;;;;;;;2.20;1.20;;;;;;;13.50;42.17;102419.28;5072523;28;20053;-73
2020/12/24 01:47:22;;;;;;;4.70;1.95;;;;;;;13.62;41.76;102421.63;5072827;28;20104;-74
2020/12/24 01:49:48;;;;;;;5.47;1.67;;;;;;;13.44;42.27;102420.44;5072726;28;20096;-74
2020/12/24 01:52:37;;;;;;;4.82;1.73;;;;;;;13.52;41.71;102430.78;5072832;28;20100;-74
2020/12/24 01:55:08;;;;;;;7.18;1.58;;;;;;;13.46;41.89;102432.78;5072701;28;20025;-74
2020/12/24 01:57:35;;;;;;;4.55;1.98;;;;;;;13.52;41.86;102428.84;5072628;28;20081;-74
2020/12/24 02:00:09;;;;;;;5.13;1.70;;;;;;;13.45;41.85;102439.41;5072596;28;20100;-75
2020/12/24 02:02:34;;;;;;;4.65;1.38;;;;;;;13.44;41.99;102442.41;5072600;28;20032;-74
2020/12/24 02:05:00;;;;;;;5.40;1.75;;;;;;;13.52;41.78;102444.50;5072626;28;20031;-75
2020/12/24 02:07:25;;;;;;;4.47;1.45;;;;;;;13.37;42.05;102448.25;5072322;28;20059;-73
2020/12/24 02:09:51;;;;;;;5.55;1.73;;;;;;;13.47;41.72;102453.66;5072392;28;20537;-74
2020/12/24 02:12:18;;;;;;;4.70;1.70;;;;;;;13.38;41.83;102451.84;5072587;28;20421;-74
2020/12/24 02:14:44;;;;;;;7.05;1.65;;;;;;;13.32;42.05;102449.13;5072440;28;20073;-74
2020/12/24 02:17:10;;;;;;;3.88;1.55;;;;;;;13.31;41.94;102455.72;5072581;28;20024;-75
2020/12/24 02:19:37;;;;;;;8.82;2.85;;;;;;;13.18;42.24;102461.84;5072315;28;20025;-74
2020/12/24 02:22:03;;;;;;;4.68;1.63;;;;;;;13.25;42.20;102447.81;5072439;28;20399;-73
2020/12/24 02:24:29;;;;;;;9.27;1.88;;;;;;;13.23;42.15;102461.03;5072265;28;20032;-75
2020/12/24 02:26:55;;;;;;;8.07;1.58;;;;;;;13.26;42.14;102452.22;5072269;28;20031;-73
2020/12/24 02:29:21;;;;;;;6.22;1.40;;;;;;;13.43;41.96;102454.50;5072408;28;20024;-74
2020/12/24 02:31:48;;;;;;;5.43;1.50;;;;;;;13.49;41.66;102454.16;5072092;28;20036;-74
2020/12/24 02:34:13;;;;;;;6.85;1.92;;;;;;;13.50;41.77;102446.75;5072351;28;20043;-74
2020/12/24 02:36:39;;;;;;;4.10;1.88;;;;;;;13.47;41.78;102458.31;5072145;28;20029;-74
2020/12/24 02:39:05;;;;;;;5.78;1.40;;;;;;;13.54;41.70;102476.09;5075661;28;20111;-74
2020/12/24 02:41:31;;;;;;;3.22;1.25;;;;;;;13.55;41.58;102474.16;5076177;28;20036;-74
2020/12/24 02:43:56;;;;;;;6.78;2.45;;;;;;;13.54;41.51;102464.28;5076196;28;20052;-75
2020/12/24 02:46:22;;;;;;;4.68;1.70;;;;;;;13.59;41.46;102467.78;5076195;28;20108;-74
2020/12/24 02:48:48;;;;;;;3.88;2.28;;;;;;;13.53;41.28;102460.72;5076337;28;20020;-73
2020/12/24 02:51:17;;;;;;;4.63;1.47;;;;;;;13.41;41.02;102470.47;5076100;28;20032;-74
2020/12/24 02:53:42;;;;;;;3.27;1.40;;;;;;;13.41;41.36;102467.72;5075816;28;20020;-74
2020/12/24 02:56:08;;;;;;;3.58;1.30;;;;;;;13.41;41.44;102464.97;5076095;28;20115;-73
2020/12/24 02:58:33;;;;;;;4.77;1.57;;;;;;;13.43;41.22;102470.97;5075926;28;20029;-74
2020/12/24 03:01:00;;;;;;;6.27;1.83;;;;;;;13.31;41.44;102474.94;5075870;28;20039;-73
2020/12/24 03:03:26;;;;;;;7.00;1.50;;;;;;;13.33;41.46;102458.19;5075849;28;20032;-73
2020/12/24 03:05:52;;;;;;;4.88;1.17;;;;;;;13.38;41.17;102471.88;5075760;28;20025;-76
2020/12/24 03:08:18;;;;;;;4.32;1.70;;;;;;;13.43;41.28;102484.72;5075949;28;20029;-74
2020/12/24 03:10:44;;;;;;;5.35;1.85;;;;;;;13.43;41.31;102476.47;5075657;28;20033;-74
2020/12/24 03:13:10;;;;;;;4.97;1.40;;;;;;;13.36;41.42;102487.78;5075810;28;20028;-74
2020/12/24 03:15:35;;;;;;;8.07;1.45;;;;;;;13.46;41.32;102500.63;5057658;28;20510;-74
2020/12/24 03:18:01;;;;;;;8.25;1.60;;;;;;;13.49;41.37;102498.09;5075358;28;20040;-74
2020/12/24 03:20:27;;;;;;;8.03;1.50;;;;;;;13.44;41.47;102509.13;5075541;28;20449;-77
2020/12/24 03:22:52;;;;;;;8.05;2.05;;;;;;;13.50;41.46;102512.66;5075434;28;20028;-74
2020/12/24 03:25:18;;;;;;;4.38;1.17;;;;;;;13.58;41.41;102514.75;5075238;28;20028;-73
2020/12/24 03:27:44;;;;;;;4.93;1.58;;;;;;;13.58;41.42;102515.56;5075536;28;20078;-75
2020/12/24 03:30:10;;;;;;;4.30;1.70;;;;;;;13.63;41.18;102511.16;5075297;28;20035;-75
2020/12/24 03:32:36;;;;;;;6.13;1.67;;;;;;;13.64;41.22;102501.81;5075491;28;20032;-74
2020/12/24 03:35:03;;;;;;;6.20;2.05;;;;;;;13.66;40.98;102500.38;5075155;28;20111;-73
2020/12/24 03:37:29;;;;;;;6.00;2.00;;;;;;;13.67;41.23;102502.03;5075344;28;20146;-75
2020/12/24 03:39:54;;;;;;;6.32;1.60;;;;;;;13.67;41.34;102501.22;5074922;28;20043;-74
2020/12/24 03:42:20;;;;;;;8.15;2.33;;;;;;;13.50;41.36;102494.25;5075037;28;20040;-74
2020/12/24 03:44:45;;;;;;;8.27;1.83;;;;;;;13.55;41.31;102504.38;5075065;28;20044;-73
2020/12/24 03:47:11;;;;;;;4.40;1.50;;;;;;;13.59;41.33;102505.41;5075072;28;20024;-74
2020/12/24 03:49:36;;;;;;;7.47;2.03;;;;;;;13.48;41.55;102507.44;5074470;28;20025;-74
2020/12/24 03:52:02;;;;;;;5.65;2.13;;;;;;;13.53;41.31;102512.09;5074915;28;20032;-73
2020/12/24 03:54:28;;;;;;;4.68;1.77;;;;;;;13.43;41.51;102509.41;5075027;28;20483;-73
2020/12/24 03:56:53;;;;;;;5.70;2.22;;;;;;;13.47;41.45;102507.75;5074747;28;20375;-73
2020/12/24 03:59:19;;;;;;;4.95;1.95;;;;;;;13.48;41.28;102492.91;5074961;28;20063;-73
2020/12/24 04:01:44;;;;;;;3.83;1.50;;;;;;;12.98;42.42;102489.47;5074616;28;20036;-73
2020/12/24 04:04:10;;;;;;;6.68;2.05;;;;;;;13.25;41.67;102487.06;5074585;28;20039;-74
2020/12/24 04:06:35;;;;;;;6.72;1.35;;;;;;;13.21;41.63;102487.94;5074862;28;20020;-74
2020/12/24 04:09:01;;;;;;;9.48;1.92;;;;;;;13.03;41.90;102494.94;5074556;28;20028;-74
2020/12/24 04:11:26;;;;;;;10.25;2.08;;;;;;;12.90;42.20;102492.81;5074722;28;20111;-74
2020/12/24 04:13:52;;;;;;;5.15;2.03;;;;;;;12.66;42.62;102501.78;5074706;28;20471;-73
2020/12/24 04:16:22;;;;;;;9.13;2.10;;;;;;;12.62;42.54;102495.22;5074627;28;20491;-75
2020/12/24 04:18:47;;;;;;;7.60;1.70;;;;;;;12.62;42.78;102506.19;5074598;28;20426;-74
2020/12/24 04:21:13;;;;;;;5.18;1.63;;;;;;;12.65;42.41;102524.00;5074261;28;20033;-74
2020/12/24 04:23:39;;;;;;;5.65;1.90;;;;;;;12.76;42.26;102520.06;5074393;28;20028;-74
2020/12/24 04:26:04;;;;;;;7.47;1.50;;;;;;;12.61;42.61;102518.25;5074314;28;20021;-75
2020/12/24 04:28:30;;;;;;;6.53;2.30;;;;;;;12.68;42.40;102517.94;5074278;28;20044;-74
2020/12/24 04:30:56;;;;;;;6.50;2.80;;;;;;;12.74;42.19;102519.53;5074365;28;20449;-73
2020/12/24 04:33:21;;;;;;;9.05;1.83;;;;;;;12.74;42.30;102517.63;5074209;28;20420;-73
2020/12/24 04:35:47;;;;;;;11.30;3.13;;;;;;;12.72;42.31;102517.09;5074065;28;20423;-74
2020/12/24 04:38:13;;;;;;;9.63;1.88;;;;;;;12.68;42.46;102516.00;5074193;28;20052;-75
2020/12/24 04:40:39;;;;;;;6.35;2.17;;;;;;;12.62;42.16;102510.84;5073888;28;20387;-74
2020/12/24 04:43:05;;;;;;;7.00;2.63;;;;;;;12.57;42.49;102513.63;5073879;28;20025;-73
2020/12/24 04:45:32;;;;;;;9.07;2.03;;;;;;;12.45;42.96;102516.69;5073985;28;20047;-75
2020/12/24 04:47:58;;;;;;;9.30;1.70;;;;;;;12.42;42.85;102504.38;5073968;28;20028;-74
2020/12/24 04:50:26;;;;;;;8.27;2.03;;;;;;;12.28;43.56;102508.03;5073655;28;20579;-74
2020/12/24 04:52:54;;;;;;;5.87;2.83;;;;;;;12.33;43.62;102513.50;5073862;28;20465;-73
2020/12/24 04:55:20;;;;;;;5.43;1.42;;;;;;;12.44;43.33;102520.53;5073768;28;20494;-73
2020/12/24 04:57:48;;;;;;;7.30;2.88;;;;;;;12.19;43.93;102529.72;5073696;28;20479;-74
2020/12/24 05:00:14;;;;;;;9.75;2.17;;;;;;;12.52;43.18;102530.91;5072814;28;20494;-73
2020/12/24 05:02:40;;;;;;;7.07;1.77;;;;;;;12.39;43.37;102535.13;5073602;28;20029;-73
2020/12/24 05:05:06;;;;;;;6.03;1.70;;;;;;;12.59;43.05;102536.91;5073502;28;20556;-76
2020/12/24 05:07:31;;;;;;;5.88;1.67;;;;;;;12.21;43.99;102544.75;5073678;28;20120;-74
2020/12/24 05:09:57;;;;;;;4.18;1.48;;;;;;;12.36;43.84;102529.38;5073427;28;20028;-74
2020/12/24 05:12:30;;;;;;;9.43;1.73;;;;;;;12.59;43.08;102542.41;5073374;28;20020;-74
2020/12/24 05:14:56;;;;;;;10.23;2.73;;;;;;;12.37;43.82;102531.81;5073361;28;20027;-75
2020/12/24 05:17:23;;;;;;;4.95;1.70;;;;;;;12.49;43.40;102531.50;5073497;28;20017;-74
2020/12/24 05:20:05;;;;;;;11.90;2.38;;;;;;;12.42;43.51;102523.56;5073328;28;20040;-74
2020/12/24 05:22:32;;;;;;;8.20;1.92;;;;;;;12.62;42.97;102530.03;5073430;28;20410;-73
2020/12/24 05:25:11;;;;;;;5.82;1.40;;;;;;;12.62;43.18;102547.34;5073226;28;20024;-74
2020/12/24 05:27:40;;;;;;;8.73;2.25;;;;;;;12.56;43.21;102540.22;5073098;28;20092;-74
2020/12/24 05:30:06;;;;;;;9.30;2.80;;;;;;;12.75;43.02;102557.66;5073130;28;20028;-73
2020/12/24 05:32:32;;;;;;;8.98;1.77;;;;;;;12.75;42.93;102552.16;5072958;28;20108;-74
2020/12/24 05:35:03;;;;;;;8.10;1.42;;;;;;;12.60;43.39;102559.66;5073044;28;20082;-74
2020/12/24 05:37:29;;;;;;;9.60;2.40;;;;;;;12.85;42.93;102566.97;5072687;28;20067;-74
2020/12/24 05:39:54;;;;;;;5.13;1.58;;;;;;;12.96;42.51;102563.84;5072734;28;20041;-75
2020/12/24 05:42:21;;;;;;;9.50;2.05;;;;;;;13.00;42.55;102572.34;5072947;28;20131;-74
2020/12/24 05:44:49;;;;;;;5.65;2.33;;;;;;;13.01;42.68;102585.78;5072576;28;20089;-74
2020/12/24 05:47:14;;;;;;;10.60;2.03;;;;;;;13.09;42.31;102581.59;5072855;28;20028;-75
2020/12/24 05:49:40;;;;;;;9.20;1.67;;;;;;;13.10;42.47;102591.47;5072743;28;20054;-73
2020/12/24 05:52:06;;;;;;;10.00;1.73;;;;;;;13.07;42.37;102603.00;5072847;28;20036;-73
2020/12/24 05:54:34;;;;;;;10.40;1.88;;;;;;;12.99;42.59;102615.41;5072659;28;20601;-73
2020/12/24 05:57:00;;;;;;;7.23;1.90;;;;;;;13.08;42.23;102615.66;5072587;28;20535;-73
2020/12/24 05:59:28;;;;;;;10.63;2.08;;;;;;;13.14;42.15;102628.22;5072788;28;20046;-76
2020/12/24 06:02:16;;;;;;;12.88;2.38;;;;;;;13.06;42.22;102617.84;5072746;28;20032;-74
2020/12/24 06:04:44;;;;;;;7.30;1.88;;;;;;;13.09;42.19;102614.53;5072526;28;20024;-75
2020/12/24 06:07:19;;;;;;;7.30;1.60;;;;;;;12.99;42.12;102612.66;5072606;28;20024;-74
2020/12/24 06:09:46;;;;;;;10.82;2.10;;;;;;;12.84;42.51;102609.19;5072362;28;20035;-75
2020/12/24 06:12:18;;;;;;;5.63;1.65;;;;;;;12.98;42.15;102607.47;5072341;28;20081;-73
2020/12/24 06:14:49;;;;;;;10.80;2.10;;;;;;;13.01;42.20;102602.22;5072503;28;20035;-73
2020/12/24 06:17:17;;;;;;;7.47;1.63;;;;;;;13.09;41.98;102603.56;5072573;28;20028;-73
2020/12/24 06:19:44;;;;;;;9.07;2.38;;;;;;;13.14;41.87;102611.75;5072396;28;20032;-74
2020/12/24 06:22:11;;;;;;;8.40;1.93;;;;;;;13.18;41.59;102609.25;5072264;28;20032;-73
2020/12/24 06:24:44;;;;;;;15.35;2.55;;;;;;;13.14;41.68;102613.66;5072233;28;20032;-74
2020/12/24 06:27:42;;;;;;;7.60;2.10;;;;;;;13.15;41.37;102621.63;5072531;28;20031;-73
2020/12/24 06:30:15;;;;;;;9.40;2.05;;;;;;;13.39;41.22;102613.53;5072305;28;20063;-73
2020/12/24 06:32:46;;;;;;;12.65;2.20;;;;;;;13.36;41.05;102616.84;5072610;28;20033;-73
2020/12/24 06:35:12;;;;;;;6.40;2.33;;;;;;;13.25;41.27;102618.84;5053696;28;20438;-73
2020/12/24 06:37:41;;;;;;;8.47;1.80;;;;;;;13.15;41.18;102621.63;5070645;28;20104;-74
2020/12/24 06:40:12;;;;;;;7.07;1.70;;;;;;;13.22;41.10;102618.56;5071029;28;20050;-73
2020/12/24 06:42:40;;;;;;;12.27;2.65;;;;;;;13.15;41.26;102629.88;5071370;28;20424;-73
2020/12/24 06:45:19;;;;;;;9.65;1.80;;;;;;;13.07;41.13;102641.41;5070215;28;20044;-73
2020/12/24 06:48:06;;;;;;;13.13;2.30;;;;;;;13.03;41.13;102638.44;5068962;28;20027;-74
2020/12/24 06:50:36;;;;;;;11.60;2.38;;;;;;;13.06;41.21;102640.59;5070063;28;20016;-74
2020/12/24 06:53:33;;;;;;;8.00;2.00;;;;;;;12.93;40.82;102627.53;5070940;28;20028;-76
2020/12/24 06:56:14;;;;;;;4.73;2.10;;;;;;;12.77;41.11;102632.28;5051774;28;20112;-74
2020/12/24 06:58:55;;;;;;;6.93;2.13;;;;;;;12.70;41.33;102629.03;5051959;28;20025;-73
2020/12/24 07:01:28;;;;;;;11.30;2.22;;;;;;;12.68;41.51;102628.47;5051976;28;20475;-72
2020/12/24 07:03:56;;;;;;;11.87;2.53;;;;;;;12.68;41.39;102633.94;5056557;28;20097;-73
2020/12/24 07:06:40;;;;;;;7.63;1.90;;;;;;;12.56;41.46;102646.34;5069586;28;20024;-73
2020/12/24 07:09:10;;;;;;;11.85;3.00;;;;;;;12.61;41.25;102649.88;5069427;28;20660;-73
2020/12/24 07:11:45;;;;;;;7.70;2.08;;;;;;;12.48;41.43;102661.47;5069991;28;20119;-72
2020/12/24 07:14:22;;;;;;;7.63;2.00;;;;;;;12.34;41.75;102654.94;5069635;28;20025;-73
2020/12/24 07:16:48;;;;;;;10.47;2.17;;;;;;;12.42;41.68;102652.44;5068253;28;20020;-73
2020/12/24 07:19:17;;;;;;;10.50;2.00;;;;;;;12.49;41.25;102660.38;5069768;28;20029;-73
2020/12/24 07:21:51;;;;;;;10.85;2.15;;;;;;;12.28;41.61;102670.56;5070585;28;20078;-74
2020/12/24 07:24:31;;;;;;;10.57;1.73;;;;;;;12.38;41.72;102675.19;5073277;28;20032;-73
2020/12/24 07:26:59;;;;;;;9.15;1.70;;;;;;;12.32;42.03;102679.88;5075563;28;20093;-73
2020/12/24 07:29:26;;;;;;;7.00;1.40;;;;;;;12.44;41.76;102676.81;5075476;28;20108;-73
2020/12/24 07:31:54;;;;;;;10.57;3.00;;;;;;;12.48;42.10;102684.22;5075256;28;20143;-75
2020/12/24 07:34:25;;;;;;;8.38;2.67;;;;;;;12.21;42.41;102683.72;5074984;28;20024;-73
2020/12/24 07:36:50;;;;;;;7.23;1.57;;;;;;;12.49;41.98;102685.84;5074857;28;20123;-73
2020/12/24 07:39:16;;;;;;;4.13;1.10;;;;;;;12.37;42.29;102687.25;5073509;28;20499;-73
2020/12/24 07:41:42;;;;;;;4.90;1.57;;;;;;;12.44;41.89;102691.34;5073606;28;20588;-73
2020/12/24 07:44:12;;;;;;;11.27;2.40;;;;;;;12.40;42.11;102690.28;5073083;28;20044;-71
2020/12/24 07:46:38;;;;;;;7.90;2.10;;;;;;;12.45;42.06;102701.22;5073933;28;20024;-73
2020/12/24 07:49:05;;;;;;;7.22;1.63;;;;;;;12.58;41.55;102719.00;5075177;28;20083;-72
2020/12/24 07:51:32;;;;;;;8.27;1.88;;;;;;;12.51;41.95;102732.19;5074950;28;20055;-73
2020/12/24 07:54:04;;;;;;;8.95;2.13;;;;;;;12.64;41.65;102739.84;5075050;28;20031;-72
2020/12/24 07:56:32;;;;;;;10.55;2.03;;;;;;;12.64;41.62;102742.59;5074751;28;20112;-75
2020/12/24 07:59:02;;;;;;;9.18;2.33;;;;;;;12.56;41.85;102731.38;5075050;28;20375;-71
2020/12/24 08:01:28;;;;;;;6.85;2.35;;;;;;;12.67;41.68;102739.28;5074801;28;20039;-72
2020/12/24 08:04:01;;;;;;;7.82;1.98;;;;;;;12.35;42.32;102755.25;5074788;28;20429;-72
2020/12/24 08:06:27;;;;;;;7.97;2.40;;;;;;;12.55;42.05;102771.69;5074887;28;20043;-70
2020/12/24 08:09:14;;;;;;;7.37;2.13;;;;;;;12.52;41.81;102764.00;5074702;28;20485;-73
2020/12/24 08:11:52;;;;;;;3.05;1.33;;;;;;;12.56;41.82;102769.75;5074272;28;20045;-72
2020/12/24 08:14:30;;;;;;;7.28;1.50;;;;;;;12.47;41.75;102766.75;5074612;28;20025;-72
2020/12/24 08:17:24;;;;;;;9.50;3.25;;;;;;;12.43;41.86;102769.22;5074605;28;20364;-72
2020/12/24 08:20:02;;;;;;;5.15;1.25;;;;;;;12.41;41.98;102768.69;5071561;28;20040;-73
2020/12/24 08:22:39;;;;;;;7.87;2.00;;;;;;;12.69;41.38;102769.97;5074451;28;20074;-72
2020/12/24 08:25:06;;;;;;;13.32;2.30;;;;;;;12.42;41.70;102766.75;5074621;28;20028;-73
2020/12/24 08:27:32;;;;;;;6.60;1.37;;;;;;;12.44;41.80;102765.38;5074361;28;20482;-72
2020/12/24 08:30:00;;;;;;;5.15;1.92;;;;;;;12.69;41.05;102759.00;5074417;28;20032;-72
2020/12/24 08:32:26;;;;;;;6.07;1.60;;;;;;;12.30;42.17;102764.28;5074307;28;20471;-72
2020/12/24 08:34:52;;;;;;;6.07;1.25;;;;;;;12.34;42.09;102789.25;5074036;28;20033;-73
2020/12/24 08:37:28;;;;;;;5.40;1.27;;;;;;;12.04;42.62;102790.88;5074226;28;20029;-73
2020/12/24 08:39:54;;;;;;;7.32;1.63;;;;;;;12.47;41.72;102794.19;5073162;28;20099;-76
2020/12/24 08:42:23;;;;;;;7.30;1.83;;;;;;;12.10;42.39;102800.75;5071011;28;20123;-75
2020/12/24 08:44:56;;;;;;;8.68;3.92;;;;;;;12.40;41.82;102821.88;5069823;28;20051;-76
2020/12/24 08:47:22;;;;;;;22.83;13.38;;;;;;;12.63;41.49;102838.84;5061426;28;20098;-75
2020/12/24 08:49:47;;;;;;;10.25;4.75;;;;;;;12.30;42.23;102851.19;5066508;28;20553;-74
2020/12/24 08:52:17;;;;;;;13.10;9.02;;;;;;;12.36;42.01;102850.09;5068045;28;20039;-72
2020/12/24 08:55:03;;;;;;;7.60;4.35;;;;;;;12.68;41.16;102872.56;5072548;28;20123;-74
2020/12/24 08:57:29;;;;;;;8.68;4.03;;;;;;;12.57;41.63;102881.09;5072385;28;20690;-72
2020/12/24 08:59:55;;;;;;;9.05;3.88;;;;;;;12.52;41.74;102892.88;5072303;28;20024;-70
2020/12/24 09:02:28;;;;;;;4.85;1.80;;;;;;;12.81;40.91;102897.81;5072182;28;20032;-77
2020/12/24 09:04:57;;;;;;;7.67;1.83;;;;;;;12.63;41.34;102911.00;5071192;28;20035;-74
2020/12/24 09:07:30;;;;;;;22.45;16.27;;;;;;;12.69;41.39;102918.09;5072280;28;20032;-72
2020/12/24 09:10:12;;;;;;;9.48;3.25;;;;;;;12.76;41.12;102926.06;5072114;28;20111;-73
2020/12/24 09:12:40;;;;;;;10.57;3.30;;;;;;;12.78;41.25;102935.69;5071046;28;20039;-74
2020/12/24 09:15:08;;;;;;;9.30;2.93;;;;;;;12.44;41.94;102942.78;5071988;28;20032;-72
2020/12/24 09:17:34;;;;;;;15.00;3.08;;;;;;;12.70;41.44;102938.97;5071996;28;20028;-72
2020/12/24 09:20:11;;;;;;;8.20;2.78;;;;;;;12.78;41.33;102940.34;5069226;28;20029;-72
2020/12/24 09:22:51;;;;;;;7.93;2.30;;;;;;;12.82;41.27;102946.09;5071499;28;20035;-79
2020/12/24 09:25:46;;;;;;;6.78;1.90;;;;;;;12.57;41.87;102957.88;5072138;28;20082;-76
2020/12/24 09:28:28;;;;;;;6.28;2.42;;;;;;;12.79;41.01;102958.44;5071796;28;20435;-78
2020/12/24 09:30:58;;;;;;;4.93;1.47;;;;;;;12.61;41.63;102970.75;5072020;28;20134;-77
2020/12/24 09:33:23;;;;;;;9.70;1.48;;;;;;;13.00;40.98;102970.25;5071757;28;20028;-76
2020/12/24 09:35:49;;;;;;;8.02;1.65;;;;;;;12.91;41.07;102972.69;5071641;28;20041;-77
2020/12/24 09:38:14;;;;;;;5.22;1.90;;;;;;;13.10;40.73;102978.47;5069925;28;20023;-73
2020/12/24 09:40:40;;;;;;;5.68;1.80;;;;;;;12.99;41.19;102982.28;5071471;28;20028;-74
2020/12/24 09:43:06;;;;;;;5.00;1.75;;;;;;;13.07;40.93;102995.47;5070664;28;20531;-75
2020/12/24 09:45:34;;;;;;;4.55;2.38;;;;;;;13.18;40.65;102990.81;5065620;28;20048;-73
2020/12/24 09:47:59;;;;;;;6.43;1.90;;;;;;;12.92;41.28;102999.06;5071497;28;20082;-73
2020/12/24 09:50:25;;;;;;;6.70;3.03;;;;;;;12.97;41.06;103006.44;5069726;28;20033;-70
2020/12/24 09:52:51;;;;;;;11.57;3.13;;;;;;;13.14;40.61;103008.91;5072184;28;20454;-71
2020/12/24 09:55:16;;;;;;;8.93;2.22;;;;;;;13.19;40.78;103009.75;5072147;28;20502;-71
2020/12/24 09:57:42;;;;;;;11.88;2.85;;;;;;;13.28;40.41;103012.78;5072888;28;20116;-71
2020/12/24 10:00:09;;;;;;;6.07;1.77;;;;;;;13.18;40.78;103021.81;5071874;28;20516;-74
2020/12/24 10:02:36;;;;;;;5.00;1.70;;;;;;;13.30;40.63;103022.41;5070812;28;20036;-71
2020/12/24 10:05:02;;;;;;;10.35;3.30;;;;;;;13.19;40.69;103028.97;5071935;28;20475;-71
2020/12/24 10:07:28;;;;;;;9.40;2.13;;;;;;;13.41;40.45;103020.47;5070829;28;20135;-72
2020/12/24 10:09:54;;;;;;;12.13;3.33;;;;;;;13.56;40.00;103034.19;5070788;28;20709;-72
2020/12/24 10:12:20;;;;;;;11.25;4.45;;;;;;;13.47;40.33;103041.34;5070794;28;20475;-72
2020/12/24 10:14:46;;;;;;;12.27;6.95;;;;;;;13.58;40.30;103050.38;5070210;28;20046;-73
2020/12/24 10:17:12;;;;;;;9.18;5.00;;;;;;;13.10;41.01;103052.56;5070872;28;20032;-73
2020/12/24 10:19:38;;;;;;;7.82;3.88;;;;;;;13.56;40.00;103047.91;5070783;28;20051;-73
2020/12/24 10:22:03;;;;;;;8.15;4.45;;;;;;;13.29;40.13;103039.13;5071613;28;20463;-72
2020/12/24 10:24:29;;;;;;;7.78;2.88;;;;;;;12.93;40.76;103036.38;5072432;28;20463;-72
2020/12/24 10:26:55;;;;;;;8.13;2.40;;;;;;;13.22;40.54;103028.44;5072455;28;20108;-72
2020/12/24 10:29:22;;;;;;;6.40;2.55;;;;;;;13.54;39.84;103022.66;5072119;28;20542;-72
2020/12/24 10:31:48;;;;;;;7.88;2.08;;;;;;;13.43;40.25;103021.00;5072407;28;20059;-72
2020/12/24 10:34:14;;;;;;;7.93;2.10;;;;;;;13.46;40.25;103025.13;5072426;28;20028;-72
2020/12/24 10:36:40;;;;;;;8.05;2.13;;;;;;;13.26;40.46;103020.47;5072283;28;20035;-71
2020/12/24 10:39:07;;;;;;;16.38;5.35;;;;;;;13.40;40.17;103026.25;5072226;28;20111;-72
2020/12/24 10:41:33;;;;;;;6.25;2.78;;;;;;;13.40;39.71;103026.25;5072393;28;20040;-72
2020/12/24 10:43:59;;;;;;;9.43;2.65;;;;;;;13.67;39.53;103026.72;5071545;28;20045;-71
2020/12/24 10:46:25;;;;;;;6.75;2.20;;;;;;;13.64;39.15;103042.94;5052113;28;20391;-72
2020/12/24 10:48:50;;;;;;;8.02;2.78;;;;;;;13.33;39.72;103041.06;5052194;28;20025;-72
2020/12/24 10:51:16;;;;;;;10.15;2.08;;;;;;;13.40;39.92;103046.28;5052114;28;20051;-72
2020/12/24 10:53:43;;;;;;;6.57;2.67;;;;;;;13.75;39.14;103039.91;5052130;28;20029;-72
2020/12/24 10:56:12;;;;;;;9.20;2.08;;;;;;;13.11;39.99;103050.66;5052121;28;20033;-72
2020/12/24 10:58:40;;;;;;;5.95;1.95;;;;;;;13.52;39.41;103056.97;5052922;28;20032;-72
2020/12/24 11:01:10;;;;;;;8.63;3.08;;;;;;;13.33;39.79;103064.97;5055994;28;20365;-72
2020/12/24 11:03:37;;;;;;;8.68;2.55;;;;;;;13.41;39.54;103063.59;5055981;28;20033;-72
2020/12/24 11:06:33;;;;;;;7.93;2.42;;;;;;;13.30;39.63;103066.34;5055995;28;20432;-72
2020/12/24 11:08:59;;;;;;;8.93;4.43;;;;;;;13.65;38.96;103067.41;5054263;28;20044;-71
2020/12/24 11:11:25;;;;;;;8.90;4.63;;;;;;;13.78;38.48;103085.25;5055923;28;20025;-72
2020/12/24 11:13:50;;;;;;;9.75;3.50;;;;;;;13.80;38.57;103077.53;5056076;28;20031;-72
2020/12/24 11:16:24;;;;;;;10.57;2.15;;;;;;;13.47;39.09;103078.97;5055745;28;20508;-72
2020/12/24 11:18:50;;;;;;;11.00;2.50;;;;;;;13.48;38.52;103061.38;5055955;28;20103;-73
2020/12/24 11:21:17;;;;;;;8.48;1.80;;;;;;;13.75;38.02;103061.91;5055599;28;20413;-74
2020/12/24 11:23:43;;;;;;;8.85;4.40;;;;;;;13.41;38.39;103049.84;5055638;28;20029;-74
2020/12/24 11:26:08;;;;;;;17.33;14.88;;;;;;;13.74;37.84;103057.47;5055599;28;20558;-75
2020/12/24 11:28:34;;;;;;;17.65;13.80;;;;;;;13.10;37.99;103058.06;5055501;28;20505;-73